Time;durP1;ratioP1;P1;durP2;ratioP2;P2;SDS_P1;SDS_P2;PMS_P1;PMS_P2;Temp;Humidity;BMP_temperature;BMP_pressure;BME280_temperature;BME280_humidity;BME280_pressure;Samples;Min_cycle;Max_cycle;Signal;HPM_P1;HPM_P2
2023/05/26 00:06:55;;;;;;;16.40;4.87;;;;;;;7.11;58.92;101733.53;20278405;29;20197;-77
2023/05/26 00:16:57;;;;;;;17.93;4.07;;;;;;;6.74;60.95;101731.09;20280153;29;20276;-77
2023/05/26 00:26:59;;;;;;;22.20;4.37;;;;;;;7.12;59.42;101742.81;20281161;29;20213;-77
2023/05/26 00:37:02;;;;;;;22.00;4.47;;;;;;;6.62;61.37;101742.63;20285042;29;20403;-77
2023/05/26 00:47:04;;;;;;;12.63;3.63;;;;;;;7.00;59.07;101751.56;20274553;29;20229;-76
2023/05/26 00:57:07;;;;;;;19.20;4.47;;;;;;;6.80;59.42;101737.56;20268510;29;20340;-77
2023/05/26 01:07:09;;;;;;;15.87;4.50;;;;;;;6.61;60.36;101749.34;20277191;29;20221;-77
2023/05/26 01:17:27;;;;;;;13.70;3.37;;;;;;;6.50;60.87;101753.25;20281993;29;20592;-77
2023/05/26 01:28:14;;;;;;;18.70;4.27;;;;;;;5.91;63.19;101756.56;20231298;29;20234;-77
2023/05/26 01:38:17;;;;;;;13.77;3.90;;;;;;;6.27;61.64;101760.25;20212995;29;20223;-76
2023/05/26 01:48:22;;;;;;;10.93;2.90;;;;;;;6.36;61.61;101755.78;20166099;29;20270;-77
2023/05/26 01:58:25;;;;;;;19.07;3.17;;;;;;;5.65;64.44;101771.59;20210767;29;20282;-76
2023/05/26 02:08:27;;;;;;;18.80;4.93;;;;;;;6.18;62.21;101761.09;20160342;29;20320;-76
2023/05/26 02:18:30;;;;;;;13.53;3.37;;;;;;;5.74;63.91;101760.69;20222702;29;20234;-77
2023/05/26 02:28:32;;;;;;;20.37;3.87;;;;;;;5.97;62.91;101763.84;20214518;29;20247;-77
2023/05/26 02:38:35;;;;;;;19.17;3.77;;;;;;;5.59;63.95;101772.69;20168141;29;20246;-77
2023/05/26 02:48:37;;;;;;;22.43;4.40;;;;;;;5.97;62.51;101775.06;20229142;29;20569;-76
2023/05/26 02:58:39;;;;;;;16.33;3.77;;;;;;;5.93;62.63;101767.50;20216566;29;20659;-77
2023/05/26 03:08:42;;;;;;;17.60;3.57;;;;;;;5.95;61.66;101763.28;20179767;29;20206;-76
2023/05/26 03:18:45;;;;;;;20.80;4.17;;;;;;;5.80;62.49;101766.03;20225358;29;20265;-76
2023/05/26 03:28:47;;;;;;;26.30;5.17;;;;;;;5.84;61.67;101764.38;20181683;29;20394;-77
2023/05/26 03:38:50;;;;;;;17.40;4.57;;;;;;;6.19;61.58;101780.41;20216850;29;20530;-76
2023/05/26 03:48:53;;;;;;;21.77;4.20;;;;;;;5.93;62.41;101785.13;20166056;29;20230;-77
2023/05/26 03:58:56;;;;;;;25.63;5.13;;;;;;;6.16;61.46;101788.56;20211640;29;20245;-77
2023/05/26 04:09:00;;;;;;;18.60;4.77;;;;;;;6.20;61.05;101795.28;20213424;29;20198;-77
2023/05/26 04:19:02;;;;;;;24.97;5.40;;;;;;;6.13;61.89;101794.72;20163525;29;20293;-76
2023/05/26 04:29:05;;;;;;;18.87;5.10;;;;;;;6.36;60.59;101799.81;20397957;23;20237;-77
2023/05/26 04:39:13;;;;;;;18.37;5.50;;;;;;;5.48;65.51;101810.16;20234620;29;20229;-77
2023/05/26 04:49:16;;;;;;;18.90;3.70;;;;;;;6.59;60.65;101807.72;20177401;29;20197;-77
2023/05/26 04:59:21;;;;;;;20.87;5.17;;;;;;;6.04;64.70;101807.59;20212411;29;20701;-75
2023/05/26 05:09:23;;;;;;;16.90;4.40;;;;;;;6.11;62.12;101809.00;20246775;29;20552;-76
2023/05/26 05:19:26;;;;;;;16.23;4.43;;;;;;;6.69;60.51;101810.53;20233929;29;20246;-77
2023/05/26 05:29:29;;;;;;;21.90;5.10;;;;;;;6.42;61.37;101826.75;20276018;29;20279;-78
2023/05/26 05:39:34;;;;;;;18.27;4.43;;;;;;;6.89;59.53;101820.06;20307299;29;20288;-78
2023/05/26 05:49:38;;;;;;;14.93;4.23;;;;;;;6.81;59.46;101829.91;20322802;29;20244;-79
2023/05/26 05:59:42;;;;;;;20.60;4.23;;;;;;;7.11;58.79;101850.66;20293192;29;20625;-80
2023/05/26 06:09:44;;;;;;;21.80;4.33;;;;;;;7.50;56.67;101856.50;20254641;29;20198;-81
2023/05/26 06:19:46;;;;;;;17.47;5.30;;;;;;;6.87;57.74;101862.44;20207169;29;20277;-80
2023/05/26 06:29:50;;;;;;;16.03;4.87;;;;;;;7.33;58.28;101854.84;20237353;29;20241;-78
2023/05/26 06:39:56;;;;;;;19.80;6.50;;;;;;;7.47;56.60;101854.28;20211683;29;20645;-80
2023/05/26 06:50:04;;;;;;;22.27;5.82;;;;;;;7.29;55.81;101870.59;20215481;29;20216;-78
2023/05/26 07:00:08;;;;;;;26.13;6.20;;;;;;;7.73;55.63;101875.59;20225270;29;20237;-80
2023/05/26 07:10:10;;;;;;;16.43;5.33;;;;;;;8.46;53.25;101876.66;20232483;29;20197;-79
2023/05/26 07:20:13;;;;;;;20.30;6.43;;;;;;;8.28;56.53;101890.53;20305062;29;20257;-80
2023/05/26 07:30:16;;;;;;;20.30;6.13;;;;;;;8.46;53.94;101892.69;20208526;29;20236;-79
2023/05/26 07:40:39;;;;;;;20.97;6.37;;;;;;;8.65;54.31;101892.91;20226875;29;20217;-80
2023/05/26 07:50:42;;;;;;;19.70;5.60;;;;;;;9.32;51.68;101883.59;20197160;29;20193;-79
2023/05/26 08:00:44;;;;;;;20.67;6.13;;;;;;;9.44;51.89;101883.22;20200604;29;20241;-79
2023/05/26 08:10:47;;;;;;;18.00;6.40;;;;;;;9.63;50.71;101895.47;20256249;29;20205;-80
2023/05/26 08:20:52;;;;;;;21.73;6.90;;;;;;;9.03;51.91;101894.88;20247390;29;20222;-80
2023/05/26 08:30:54;;;;;;;22.10;5.90;;;;;;;9.34;51.51;101878.53;20249565;29;20716;-78
2023/05/26 08:40:57;;;;;;;16.40;5.10;;;;;;;9.38;50.82;101885.25;20237734;29;20246;-79
2023/05/26 08:51:00;;;;;;;20.08;5.72;;;;;;;10.02;48.57;101884.00;20256883;29;20197;-81
2023/05/26 09:01:02;;;;;;;22.27;5.22;;;;;;;9.82;49.40;101878.63;20230789;29;20530;-82
2023/05/26 09:11:22;;;;;;;17.58;4.95;;;;;;;10.54;48.29;101868.09;20217254;29;20225;-81
2023/05/26 09:21:28;;;;;;;16.27;5.50;;;;;;;11.29;47.49;101868.81;20199295;29;20279;-81
2023/05/26 09:31:38;;;;;;;17.50;4.28;;;;;;;11.40;45.53;101860.19;20219604;29;20225;-82
2023/05/26 09:41:45;;;;;;;24.83;5.43;;;;;;;11.36;45.23;101868.47;20269819;29;20223;-82
2023/05/26 09:51:49;;;;;;;29.15;5.55;;;;;;;11.87;44.27;101867.47;20278886;29;20202;-81
2023/05/26 10:02:25;;;;;;;18.75;5.20;;;;;;;11.36;45.42;101878.94;20235065;29;20225;-82
2023/05/26 10:12:34;;;;;;;19.67;4.60;;;;;;;11.32;46.04;101867.38;20193236;29;20201;-82
2023/05/26 10:22:56;;;;;;;19.05;4.65;;;;;;;12.66;42.85;101860.38;20216741;29;20225;-84
2023/05/26 10:33:08;;;;;;;19.55;4.10;;;;;;;12.46;43.95;101863.66;20164427;29;20555;-84
2023/05/26 10:43:20;;;;;;;17.83;5.07;;;;;;;12.99;42.29;101843.97;20178208;29;20262;-81
2023/05/26 10:53:22;;;;;;;15.98;5.32;;;;;;;13.00;41.61;101844.81;20135963;29;20197;-81
2023/05/26 11:03:38;;;;;;;16.98;4.63;;;;;;;12.72;42.88;101844.91;20175747;29;20285;-82
2023/05/26 11:13:46;;;;;;;19.25;4.63;;;;;;;13.21;41.94;101828.94;20154068;29;20206;-81
2023/05/26 11:23:51;;;;;;;20.42;4.95;;;;;;;13.41;42.15;101817.06;20178780;29;20511;-79
2023/05/26 11:33:55;;;;;;;18.65;4.45;;;;;;;14.78;39.35;101814.91;20239029;29;20198;-84
2023/05/26 11:43:58;;;;;;;18.55;5.72;;;;;;;14.91;39.08;101808.19;20242217;29;20233;-81
2023/05/26 11:54:00;;;;;;;19.23;4.68;;;;;;;15.19;37.76;101808.66;20202250;29;20193;-80
2023/05/26 12:04:04;;;;;;;15.98;4.45;;;;;;;15.39;37.48;101812.81;20213165;29;20237;-81
2023/05/26 12:14:14;;;;;;;18.10;4.93;;;;;;;15.13;36.82;101802.31;20172211;29;20241;-83
2023/05/26 12:24:35;;;;;;;18.75;4.07;;;;;;;14.76;37.07;101803.84;20211075;29;20229;-82
2023/05/26 12:34:39;;;;;;;13.43;3.67;;;;;;;15.15;33.55;101784.88;20214399;29;20197;-79
2023/05/26 12:44:41;;;;;;;12.50;3.35;;;;;;;15.20;31.72;101788.41;20198419;29;20626;-78
2023/05/26 12:54:43;;;;;;;119.85;101.65;;;;;;;15.60;33.81;101785.28;20253687;29;20254;-76
2023/05/26 13:04:46;;;;;;;11.85;3.33;;;;;;;14.95;31.77;101777.94;20225249;29;20288;-80
2023/05/26 13:14:48;;;;;;;9.38;2.65;;;;;;;15.43;30.89;101766.25;20204505;29;20238;-81
2023/05/26 13:24:50;;;;;;;11.13;2.88;;;;;;;15.73;28.80;101772.81;20209011;29;20658;-79
2023/05/26 13:34:52;;;;;;;10.48;2.60;;;;;;;15.54;29.43;101764.69;20252060;29;20197;-83
2023/05/26 13:44:54;;;;;;;11.32;4.35;;;;;;;15.63;28.31;101755.28;20222016;29;20224;-81
2023/05/26 13:54:57;;;;;;;11.20;3.08;;;;;;;16.03;27.07;101752.91;20236759;29;20506;-83
2023/05/26 14:05:00;;;;;;;13.90;2.85;;;;;;;15.31;29.74;101753.91;20226786;29;20282;-82
2023/05/26 14:15:06;;;;;;;10.48;3.17;;;;;;;15.89;29.96;101742.56;20217698;29;20253;-83
2023/05/26 14:25:08;;;;;;;8.90;3.10;;;;;;;15.95;28.28;101739.53;20233433;29;20228;-82
2023/05/26 14:35:10;;;;;;;12.35;3.13;;;;;;;16.39;26.95;101727.47;20253814;29;20190;-83
2023/05/26 14:45:12;;;;;;;11.60;3.00;;;;;;;16.37;27.80;101737.56;20222228;29;20289;-82
2023/05/26 14:55:17;;;;;;;10.68;3.53;;;;;;;15.88;27.81;101732.38;20235873;29;20254;-83
2023/05/26 15:05:19;;;;;;;10.90;2.92;;;;;;;15.85;29.48;101735.06;20241094;29;20289;-81
2023/05/26 15:15:22;;;;;;;16.85;3.90;;;;;;;15.81;29.01;101729.22;20237134;29;20197;-82
2023/05/26 15:25:24;;;;;;;12.00;3.75;;;;;;;15.35;30.44;101715.06;20257459;29;20265;-83
2023/05/26 15:35:26;;;;;;;10.82;2.92;;;;;;;15.51;31.58;101713.34;20216155;29;20195;-82
2023/05/26 15:45:29;;;;;;;11.85;3.08;;;;;;;15.45;30.52;101700.47;20262490;29;20554;-78
2023/05/26 15:55:31;;;;;;;12.50;3.13;;;;;;;15.58;30.20;101702.22;20250644;29;20227;-83
2023/05/26 16:05:34;;;;;;;9.25;2.70;;;;;;;15.49;29.65;101704.28;20248291;29;20226;-77
2023/05/26 16:15:37;;;;;;;8.32;3.08;;;;;;;15.52;31.11;101686.53;20243141;29;20258;-82
2023/05/26 16:25:39;;;;;;;10.90;3.05;;;;;;;15.33;30.84;101700.34;20248043;29;20266;-77
2023/05/26 16:35:45;;;;;;;12.30;3.40;;;;;;;14.95;32.22;101695.47;20245477;29;20201;-78
2023/05/26 16:45:47;;;;;;;12.45;3.17;;;;;;;14.57;33.35;101694.56;20251466;29;20217;-79
2023/05/26 16:55:49;;;;;;;8.85;2.65;;;;;;;14.61;34.14;101698.41;20271625;29;20214;-79
2023/05/26 17:05:52;;;;;;;11.73;3.50;;;;;;;15.16;33.57;101698.38;20269899;29;20230;-79
2023/05/26 17:15:54;;;;;;;10.02;2.90;;;;;;;14.05;35.22;101692.56;20260552;29;20231;-74
2023/05/26 17:25:56;;;;;;;9.68;2.10;;;;;;;15.65;31.95;101691.16;20269391;29;20225;-81
2023/05/26 17:35:58;;;;;;;13.40;2.95;;;;;;;14.88;33.79;101698.00;20243869;29;20206;-81
2023/05/26 17:46:00;;;;;;;9.38;2.55;;;;;;;14.28;34.78;101704.56;20234135;29;20221;-80
2023/05/26 17:56:02;;;;;;;11.40;2.72;;;;;;;13.93;36.15;101708.56;20234868;29;20476;-79
2023/05/26 18:06:05;;;;;;;12.20;3.10;;;;;;;14.29;36.27;101705.41;20220548;29;20254;-74
2023/05/26 18:16:07;;;;;;;568.22;506.92;;;;;;;13.57;36.52;101717.31;20229084;29;20210;-75
2023/05/26 18:26:10;;;;;;;13.43;5.45;;;;;;;13.21;36.77;101723.19;20278790;29;20276;-79
2023/05/26 18:36:12;;;;;;;16.15;3.25;;;;;;;13.16;37.95;101717.66;20223686;29;20502;-78
2023/05/26 18:46:15;;;;;;;9.25;2.55;;;;;;;12.79;38.26;101725.44;20230984;29;20515;-79
2023/05/26 18:56:17;;;;;;;9.32;4.82;;;;;;;13.00;36.92;101720.91;20246854;29;21019;-79
2023/05/26 19:06:24;;;;;;;9.75;4.13;;;;;;;12.26;38.43;101733.88;20245558;29;20221;-80
2023/05/26 19:16:29;;;;;;;21.40;3.17;;;;;;;12.32;38.54;101727.75;20258061;29;20286;-89
2023/05/26 19:26:32;;;;;;;16.70;7.15;;;;;;;12.32;40.52;101738.25;20307813;29;20261;-81
2023/05/26 19:36:35;;;;;;;12.50;3.00;;;;;;;11.65;40.82;101752.19;20247649;29;20189;-87
2023/05/26 19:46:37;;;;;;;8.50;2.95;;;;;;;11.50;41.29;101761.88;20266077;29;20694;-84
2023/05/26 19:56:39;;;;;;;10.18;2.92;;;;;;;11.49;40.51;101760.19;20251776;29;20280;-91
2023/05/26 20:06:42;;;;;;;11.27;3.13;;;;;;;10.82;42.74;101776.69;20230857;29;20714;-87
2023/05/26 20:16:45;;;;;;;9.07;2.60;;;;;;;10.66;42.88;101778.09;20252193;29;20201;-84
2023/05/26 20:26:48;;;;;;;15.95;3.53;;;;;;;10.56;43.09;101786.75;20231814;29;20410;-93
2023/05/26 20:36:50;;;;;;;13.10;4.03;;;;;;;10.77;42.03;101782.41;20246769;29;20274;-85
2023/05/26 20:46:53;;;;;;;10.00;2.73;;;;;;;10.09;44.89;101799.81;20196463;29;20654;-85
2023/05/26 20:56:55;;;;;;;8.88;3.17;;;;;;;10.57;43.96;101796.91;20208752;29;20189;-93
2023/05/26 21:06:58;;;;;;;10.60;3.60;;;;;;;9.96;45.47;101788.44;20223440;29;20285;-84
2023/05/26 21:17:00;;;;;;;13.55;3.75;;;;;;;10.08;45.35;101786.03;20224274;29;20213;-85
2023/05/26 21:27:03;;;;;;;14.50;3.95;;;;;;;9.82;46.56;101791.19;20229575;29;20226;-88
2023/05/26 21:37:05;;;;;;;9.60;3.27;;;;;;;9.38;47.08;101783.78;20199867;29;20261;-87
2023/05/26 21:47:08;;;;;;;14.25;3.67;;;;;;;9.41;48.25;101783.19;20209755;29;20225;-87
2023/05/26 21:57:10;;;;;;;14.50;4.43;;;;;;;9.11;49.11;101775.06;20202544;29;20190;-87
2023/05/26 22:07:12;;;;;;;16.02;4.30;;;;;;;8.96;49.83;101792.13;20228004;29;20540;-88
2023/05/26 22:17:15;;;;;;;11.65;3.97;;;;;;;8.07;51.54;101800.63;20233647;29;20193;-87
2023/05/26 22:27:17;;;;;;;14.67;4.60;;;;;;;8.30;51.41;101803.88;20244572;29;20232;-87
2023/05/26 22:37:20;;;;;;;12.47;4.20;;;;;;;8.96;49.50;101801.41;20262572;29;20266;-87
2023/05/26 22:47:22;;;;;;;12.40;3.80;;;;;;;8.47;51.26;101821.22;20282720;29;20216;-86
2023/05/26 22:57:25;;;;;;;12.60;3.60;;;;;;;8.11;51.71;101815.81;20230839;29;20229;-87
2023/05/26 23:07:27;;;;;;;10.80;4.17;;;;;;;8.29;51.95;101810.63;20290812;29;20212;-87
2023/05/26 23:17:29;;;;;;;9.50;3.73;;;;;;;8.19;52.21;101810.69;20265155;29;20197;-86
2023/05/26 23:27:32;;;;;;;13.17;4.00;;;;;;;8.25;51.56;101810.38;20229769;29;20623;-88
2023/05/26 23:37:34;;;;;;;12.63;4.23;;;;;;;8.22;52.04;101807.31;20247244;29;20201;-89
2023/05/26 23:47:36;;;;;;;20.57;4.90;;;;;;;7.98;52.96;101805.19;20259542;29;20221;-86
2023/05/26 23:57:39;;;;;;;15.50;3.70;;;;;;;7.52;54.36;101795.22;20290597;29;20189;-86
